sensor_id;sensor_type;location;lat;lon;timestamp;pressure;altitude;pressure_sealevel;temperature;humidity
54503;BME280;40411;50.090;21.954;2022-08-19T00:00:20;153879.75;;;19.23;100.00
54503;BME280;40411;50.090;21.954;2022-08-19T00:03:03;153816.72;;;18.98;100.00
54503;BME280;40411;50.090;21.954;2022-08-19T00:05:29;153798.66;;;18.91;100.00
54503;BME280;40411;50.090;21.954;2022-08-19T00:07:57;153803.84;;;18.93;100.00
54503;BME280;40411;50.090;21.954;2022-08-19T00:10:23;153789.69;;;18.87;100.00
54503;BME280;40411;50.090;21.954;2022-08-19T00:12:50;153787.13;;;18.86;100.00
54503;BME280;40411;50.090;21.954;2022-08-19T00:15:19;153720.16;;;18.60;100.00
54503;BME280;40411;50.090;21.954;2022-08-19T00:17:46;153758.81;;;18.75;100.00
54503;BME280;40411;50.090;21.954;2022-08-19T00:20:15;153803.84;;;18.93;100.00
54503;BME280;40411;50.090;21.954;2022-08-19T00:22:44;153806.38;;;18.94;100.00
54503;BME280;40411;50.090;21.954;2022-08-19T00:25:10;153775.53;;;18.82;100.00
54503;BME280;40411;50.090;21.954;2022-08-19T00:27:36;153769.09;;;18.79;100.00
54503;BME280;40411;50.090;21.954;2022-08-19T00:30:04;153761.38;;;18.76;100.00
54503;BME280;40411;50.090;21.954;2022-08-19T00:32:30;153766.53;;;18.78;100.00
54503;BME280;40411;50.090;21.954;2022-08-19T00:34:56;153760.09;;;18.75;100.00
54503;BME280;40411;50.090;21.954;2022-08-19T00:37:23;153766.53;;;18.78;100.00
54503;BME280;40411;50.090;21.954;2022-08-19T00:39:51;153767.81;;;18.79;100.00
54503;BME280;40411;50.090;21.954;2022-08-19T00:42:19;153762.66;;;18.77;100.00
54503;BME280;40411;50.090;21.954;2022-08-19T00:44:45;153767.81;;;18.79;100.00
54503;BME280;40411;50.090;21.954;2022-08-19T00:47:11;153756.22;;;18.74;100.00
54503;BME280;40411;50.090;21.954;2022-08-19T00:49:41;153757.50;;;18.74;100.00
54503;BME280;40411;50.090;21.954;2022-08-19T00:52:17;153736.84;;;18.66;100.00
54503;BME280;40411;50.090;21.954;2022-08-19T00:54:47;153754.88;;;18.73;100.00
54503;BME280;40411;50.090;21.954;2022-08-19T00:57:15;153752.34;;;18.72;100.00
54503;BME280;40411;50.090;21.954;2022-08-19T00:59:45;153718.88;;;18.59;100.00
54503;BME280;40411;50.090;21.954;2022-08-19T01:02:12;153734.31;;;18.65;100.00
54503;BME280;40411;50.090;21.954;2022-08-19T01:04:38;153690.56;;;18.48;100.00
54503;BME280;40411;50.090;21.954;2022-08-19T01:07:04;153700.84;;;18.52;100.00
54503;BME280;40411;50.090;21.954;2022-08-19T01:09:30;153713.72;;;18.57;100.00
54503;BME280;40411;50.090;21.954;2022-08-19T01:11:56;153747.19;;;18.70;100.00
54503;BME280;40411;50.090;21.954;2022-08-19T01:14:23;153724.03;;;18.61;100.00
54503;BME280;40411;50.090;21.954;2022-08-19T01:16:50;153672.53;;;18.41;100.00
54503;BME280;40411;50.090;21.954;2022-08-19T01:19:29;153639.09;;;18.27;100.00
54503;BME280;40411;50.090;21.954;2022-08-19T01:24:51;153671.28;;;18.40;100.00
54503;BME280;40411;50.090;21.954;2022-08-19T01:27:17;153664.84;;;18.38;100.00
54503;BME280;40411;50.090;21.954;2022-08-19T01:29:44;153662.28;;;18.37;100.00
54503;BME280;40411;50.090;21.954;2022-08-19T01:32:15;153663.56;;;18.37;100.00
54503;BME280;40411;50.090;21.954;2022-08-19T01:34:41;153641.69;;;18.28;100.00
54503;BME280;40411;50.090;21.954;2022-08-19T01:37:11;153675.16;;;18.42;100.00
54503;BME280;40411;50.090;21.954;2022-08-19T01:39:39;153729.16;;;18.63;100.00
54503;BME280;40411;50.090;21.954;2022-08-19T01:42:07;153752.34;;;18.72;100.00
54503;BME280;40411;50.090;21.954;2022-08-19T01:44:38;153749.72;;;18.71;100.00
54503;BME280;40411;50.090;21.954;2022-08-19T01:47:04;153793.56;;;18.89;100.00
54503;BME280;40411;50.090;21.954;2022-08-19T01:49:30;153781.97;;;18.84;100.00
54503;BME280;40411;50.090;21.954;2022-08-19T01:51:56;153736.84;;;18.66;100.00
54503;BME280;40411;50.090;21.954;2022-08-19T01:54:23;153762.66;;;18.77;100.00
54503;BME280;40411;50.090;21.954;2022-08-19T01:56:57;153781.97;;;18.84;100.00
54503;BME280;40411;50.090;21.954;2022-08-19T01:59:23;153817.97;;;18.98;100.00
54503;BME280;40411;50.090;21.954;2022-08-19T02:01:49;153806.38;;;18.94;100.00
54503;BME280;40411;50.090;21.954;2022-08-19T02:04:15;153823.16;;;19.01;100.00
54503;BME280;40411;50.090;21.954;2022-08-19T02:06:41;153847.56;;;19.10;100.00
54503;BME280;40411;50.090;21.954;2022-08-19T02:09:08;153863.00;;;19.16;100.00
54503;BME280;40411;50.090;21.954;2022-08-19T02:11:36;153857.88;;;19.14;100.00
54503;BME280;40411;50.090;21.954;2022-08-19T02:14:06;153843.72;;;19.09;100.00
54503;BME280;40411;50.090;21.954;2022-08-19T02:16:33;153851.44;;;19.12;100.00
54503;BME280;40411;50.090;21.954;2022-08-19T02:18:59;153868.16;;;19.18;100.00
54503;BME280;40411;50.090;21.954;2022-08-19T02:21:29;153857.88;;;19.14;100.00
54503;BME280;40411;50.090;21.954;2022-08-19T02:23:55;153878.47;;;19.23;100.00
54503;BME280;40411;50.090;21.954;2022-08-19T02:26:21;153924.78;;;19.41;100.00
54503;BME280;40411;50.090;21.954;2022-08-19T02:28:47;153938.94;;;19.47;100.00
54503;BME280;40411;50.090;21.954;2022-08-19T02:31:16;153938.94;;;19.47;100.00
54503;BME280;40411;50.090;21.954;2022-08-19T02:33:44;153924.78;;;19.41;100.00
54503;BME280;40411;50.090;21.954;2022-08-19T02:36:12;153941.53;;;19.48;100.00
54503;BME280;40411;50.090;21.954;2022-08-19T02:38:39;153931.22;;;19.43;100.00
54503;BME280;40411;50.090;21.954;2022-08-19T02:41:14;153922.22;;;19.40;100.00
54503;BME280;40411;50.090;21.954;2022-08-19T02:43:41;153911.91;;;19.36;100.00
54503;BME280;40411;50.090;21.954;2022-08-19T02:46:23;153866.88;;;19.18;100.00
54503;BME280;40411;50.090;21.954;2022-08-19T02:48:51;153904.19;;;19.33;100.00
54503;BME280;40411;50.090;21.954;2022-08-19T02:51:25;153878.47;;;19.23;100.00
54503;BME280;40411;50.090;21.954;2022-08-19T02:53:51;153860.44;;;19.15;100.00
54503;BME280;40411;50.090;21.954;2022-08-19T02:56:18;153887.47;;;19.26;100.00
54503;BME280;40411;50.090;21.954;2022-08-19T02:58:44;153926.06;;;19.41;100.00
54503;BME280;40411;50.090;21.954;2022-08-19T03:01:11;153978.84;;;19.62;100.00
54503;BME280;40411;50.090;21.954;2022-08-19T03:03:38;153953.09;;;19.52;100.00
54503;BME280;40411;50.090;21.954;2022-08-19T03:06:12;153965.97;;;19.57;100.00
54503;BME280;40411;50.090;21.954;2022-08-19T03:08:41;153937.66;;;19.46;100.00
54503;BME280;40411;50.090;21.954;2022-08-19T03:11:16;153909.34;;;19.35;100.00
54503;BME280;40411;50.090;21.954;2022-08-19T03:13:42;153887.47;;;19.26;100.00
54503;BME280;40411;50.090;21.954;2022-08-19T03:16:10;153863.00;;;19.16;100.00
54503;BME280;40411;50.090;21.954;2022-08-19T03:18:36;153893.91;;;19.29;100.00
54503;BME280;40411;50.090;21.954;2022-08-19T03:21:02;153883.59;;;19.25;100.00
54503;BME280;40411;50.090;21.954;2022-08-19T03:23:29;153904.19;;;19.33;100.00
54503;BME280;40411;50.090;21.954;2022-08-19T03:25:54;153870.75;;;19.19;100.00
54503;BME280;40411;50.090;21.954;2022-08-19T03:28:20;153929.94;;;19.43;100.00
54503;BME280;40411;50.090;21.954;2022-08-19T03:31:22;153942.81;;;19.48;100.00
54503;BME280;40411;50.090;21.954;2022-08-19T03:33:50;153955.69;;;19.53;100.00
54503;BME280;40411;50.090;21.954;2022-08-19T03:36:22;153971.16;;;19.59;100.00
54503;BME280;40411;50.090;21.954;2022-08-19T03:38:53;153972.41;;;19.60;100.00
54503;BME280;40411;50.090;21.954;2022-08-19T03:41:23;153993.06;;;19.68;100.00
54503;BME280;40411;50.090;21.954;2022-08-19T03:43:49;154018.81;;;19.78;100.00
54503;BME280;40411;50.090;21.954;2022-08-19T03:46:18;153964.69;;;19.57;100.00
54503;BME280;40411;50.090;21.954;2022-08-19T03:48:47;153989.19;;;19.67;100.00
54503;BME280;40411;50.090;21.954;2022-08-19T03:51:26;153940.22;;;19.47;100.00
54503;BME280;40411;50.090;21.954;2022-08-19T03:53:53;153972.41;;;19.60;100.00
54503;BME280;40411;50.090;21.954;2022-08-19T03:56:20;153968.53;;;19.58;100.00
54503;BME280;40411;50.090;21.954;2022-08-19T03:58:46;153933.84;;;19.45;100.00
54503;BME280;40411;50.090;21.954;2022-08-19T04:01:16;153942.81;;;19.48;100.00
54503;BME280;40411;50.090;21.954;2022-08-19T04:03:43;153933.84;;;19.45;100.00
54503;BME280;40411;50.090;21.954;2022-08-19T04:06:16;153984.03;;;19.64;100.00
54503;BME280;40411;50.090;21.954;2022-08-19T04:08:44;154009.78;;;19.75;100.00
54503;BME280;40411;50.090;21.954;2022-08-19T04:11:15;154031.66;;;19.83;100.00
54503;BME280;40411;50.090;21.954;2022-08-19T04:13:41;154004.66;;;19.73;100.00
54503;BME280;40411;50.090;21.954;2022-08-19T04:16:09;154063.88;;;19.96;100.00
54503;BME280;40411;50.090;21.954;2022-08-19T04:18:37;154047.16;;;19.90;100.00
54503;BME280;40411;50.090;21.954;2022-08-19T04:21:03;154049.69;;;19.91;100.00
54503;BME280;40411;50.090;21.954;2022-08-19T04:23:29;154044.53;;;19.89;100.00
54503;BME280;40411;50.090;21.954;2022-08-19T04:25:55;154126.97;;;20.21;100.00
54503;BME280;40411;50.090;21.954;2022-08-19T04:28:22;154146.28;;;20.29;100.00
54503;BME280;40411;50.090;21.954;2022-08-19T04:30:52;154173.34;;;20.40;100.00
54503;BME280;40411;50.090;21.954;2022-08-19T04:33:24;154164.28;;;20.36;100.00
54503;BME280;40411;50.090;21.954;2022-08-19T04:35:52;154137.28;;;20.25;100.00
54503;BME280;40411;50.090;21.954;2022-08-19T04:38:21;154133.41;;;20.24;100.00
54503;BME280;40411;50.090;21.954;2022-08-19T04:40:50;154169.44;;;20.38;100.00
54503;BME280;40411;50.090;21.954;2022-08-19T04:43:37;154187.50;;;20.45;100.00
54503;BME280;40411;50.090;21.954;2022-08-19T04:46:08;154241.59;;;20.67;100.00
54503;BME280;40411;50.090;21.954;2022-08-19T04:48:36;154254.50;;;20.72;100.00
54503;BME280;40411;50.090;21.954;2022-08-19T04:51:06;154282.84;;;20.83;100.00
54503;BME280;40411;50.090;21.954;2022-08-19T04:53:34;154276.38;;;20.81;100.00
54503;BME280;40411;50.090;21.954;2022-08-19T04:56:05;154284.13;;;20.84;100.00
54503;BME280;40411;50.090;21.954;2022-08-19T04:58:33;154254.50;;;20.72;100.00
54503;BME280;40411;50.090;21.954;2022-08-19T05:00:59;154284.13;;;20.84;100.00
54503;BME280;40411;50.090;21.954;2022-08-19T05:03:28;154349.84;;;21.10;100.00
54503;BME280;40411;50.090;21.954;2022-08-19T05:05:56;154376.91;;;21.20;100.00
54503;BME280;40411;50.090;21.954;2022-08-19T05:08:22;154343.41;;;21.07;100.00
54503;BME280;40411;50.090;21.954;2022-08-19T05:10:50;154431.03;;;21.42;100.00
54503;BME280;40411;50.090;21.954;2022-08-19T05:13:18;154473.56;;;21.59;100.00
54503;BME280;40411;50.090;21.954;2022-08-19T05:15:56;154494.19;;;21.67;100.00
54503;BME280;40411;50.090;21.954;2022-08-19T05:18:23;154476.16;;;21.60;100.00
54503;BME280;40411;50.090;21.954;2022-08-19T05:21:10;154545.78;;;21.88;100.00
54503;BME280;40411;50.090;21.954;2022-08-19T05:23:56;154536.72;;;21.84;100.00
54503;BME280;40411;50.090;21.954;2022-08-19T05:26:23;154532.88;;;21.82;100.00
54503;BME280;40411;50.090;21.954;2022-08-19T05:28:54;154612.78;;;22.14;100.00
54503;BME280;40411;50.090;21.954;2022-08-19T05:31:21;154651.53;;;22.29;100.00
54503;BME280;40411;50.090;21.954;2022-08-19T05:33:47;154656.69;;;22.32;100.00
54503;BME280;40411;50.090;21.954;2022-08-19T05:36:13;154705.63;;;22.51;100.00
54503;BME280;40411;50.090;21.954;2022-08-19T05:38:40;154713.41;;;22.54;100.00
54503;BME280;40411;50.090;21.954;2022-08-19T05:41:10;154731.44;;;22.61;100.00
54503;BME280;40411;50.090;21.954;2022-08-19T05:43:37;154832.06;;;23.01;100.00
54503;BME280;40411;50.090;21.954;2022-08-19T05:46:04;154826.94;;;22.99;100.00
54503;BME280;40411;50.090;21.954;2022-08-19T05:48:34;154823.03;;;22.97;100.00
54503;BME280;40411;50.090;21.954;2022-08-19T05:51:05;154821.78;;;22.97;100.00
54503;BME280;40411;50.090;21.954;2022-08-19T05:53:33;154804.97;;;22.90;100.00
54503;BME280;40411;50.090;21.954;2022-08-19T05:56:12;154890.13;;;23.24;100.00
54503;BME280;40411;50.090;21.954;2022-08-19T05:58:39;154913.34;;;23.33;100.00
54503;BME280;40411;50.090;21.954;2022-08-19T06:01:10;154976.56;;;23.58;100.00
54503;BME280;40411;50.090;21.954;2022-08-19T06:03:37;154890.13;;;23.24;100.00
54503;BME280;40411;50.090;21.954;2022-08-19T06:06:06;154983.00;;;23.61;100.00
54503;BME280;40411;50.090;21.954;2022-08-19T06:08:34;154989.47;;;23.63;100.00
54503;BME280;40411;50.090;21.954;2022-08-19T06:11:21;155109.50;;;24.11;100.00
54503;BME280;40411;50.090;21.954;2022-08-19T06:13:49;155146.91;;;24.26;100.00
54503;BME280;40411;50.090;21.954;2022-08-19T06:16:20;155197.31;;;24.46;100.00
54503;BME280;40411;50.090;21.954;2022-08-19T06:18:52;155137.91;;;24.22;100.00
54503;BME280;40411;50.090;21.954;2022-08-19T06:21:20;155174.03;;;24.37;100.00
54503;BME280;40411;50.090;21.954;2022-08-19T06:23:47;155199.91;;;24.47;100.00
54503;BME280;40411;50.090;21.954;2022-08-19T06:26:15;155281.22;;;24.79;100.00
54503;BME280;40411;50.090;21.954;2022-08-19T06:28:41;155314.78;;;24.92;100.00
54503;BME280;40411;50.090;21.954;2022-08-19T06:31:10;155349.66;;;25.06;100.00
54503;BME280;40411;50.090;21.954;2022-08-19T06:33:38;155474.97;;;25.56;100.00
54503;BME280;40411;50.090;21.954;2022-08-19T06:36:05;155530.53;;;25.78;100.00
54503;BME280;40411;50.090;21.954;2022-08-19T06:38:31;155562.81;;;25.91;100.00
54503;BME280;40411;50.090;21.954;2022-08-19T06:41:05;155562.81;;;25.91;100.00
54503;BME280;40411;50.090;21.954;2022-08-19T06:43:31;155493.03;;;25.63;100.00
54503;BME280;40411;50.090;21.954;2022-08-19T06:45:57;155599.03;;;26.05;100.00
54503;BME280;40411;50.090;21.954;2022-08-19T06:48:24;155640.34;;;26.21;100.00
54503;BME280;40411;50.090;21.954;2022-08-19T06:50:50;155706.25;;;26.47;100.00
54503;BME280;40411;50.090;21.954;2022-08-19T06:53:17;155791.59;;;26.81;100.00
54503;BME280;40411;50.090;21.954;2022-08-19T06:55:45;155742.50;;;26.62;100.00
54503;BME280;40411;50.090;21.954;2022-08-19T06:58:11;155813.56;;;26.90;100.00
54503;BME280;40411;50.090;21.954;2022-08-19T07:00:37;155861.41;;;27.09;100.00
54503;BME280;40411;50.090;21.954;2022-08-19T07:03:02;155839.44;;;27.00;100.00
54503;BME280;40411;50.090;21.954;2022-08-19T07:05:28;155865.25;;;27.10;100.00
54503;BME280;40411;50.090;21.954;2022-08-19T07:07:54;155985.50;;;27.58;100.00
54503;BME280;40411;50.090;21.954;2022-08-19T07:10:20;155981.66;;;27.56;100.00
54503;BME280;40411;50.090;21.954;2022-08-19T07:12:46;156029.50;;;27.75;100.00
54503;BME280;40411;50.090;21.954;2022-08-19T07:15:14;156108.44;;;28.06;100.00
54503;BME280;40411;50.090;21.954;2022-08-19T07:17:41;156135.59;;;28.17;100.00
54503;BME280;40411;50.090;21.954;2022-08-19T07:20:10;156232.66;;;28.56;100.00
54503;BME280;40411;50.090;21.954;2022-08-19T07:22:37;156296.03;;;28.81;100.00
54503;BME280;40411;50.090;21.954;2022-08-19T07:25:06;156315.41;;;28.88;97.68
54503;BME280;40411;50.090;21.954;2022-08-19T07:27:32;156440.97;;;29.38;97.65
54503;BME280;40411;50.090;21.954;2022-08-19T07:29:59;156620.94;;;30.09;91.99
54503;BME280;40411;50.090;21.954;2022-08-19T07:32:25;157032.88;;;31.72;88.42
54503;BME280;40411;50.090;21.954;2022-08-19T07:34:52;156930.47;;;31.31;79.87
54503;BME280;40411;50.090;21.954;2022-08-19T07:37:18;157341.41;;;32.93;76.33
54503;BME280;40411;50.090;21.954;2022-08-19T07:39:43;157340.06;;;32.93;72.26
54503;BME280;40411;50.090;21.954;2022-08-19T07:42:12;157587.81;;;33.91;70.79
54503;BME280;40411;50.090;21.954;2022-08-19T07:44:39;157528.16;;;33.67;62.36
54503;BME280;40411;50.090;21.954;2022-08-19T07:47:05;157569.66;;;33.84;61.22
54503;BME280;40411;50.090;21.954;2022-08-19T07:49:32;157800.63;;;34.75;59.80
54503;BME280;40411;50.090;21.954;2022-08-19T07:52:05;157878.44;;;35.05;54.33
54503;BME280;40411;50.090;21.954;2022-08-19T07:54:33;157810.97;;;34.79;52.29
54503;BME280;40411;50.090;21.954;2022-08-19T07:57:01;157660.47;;;34.19;51.31
54503;BME280;40411;50.090;21.954;2022-08-19T07:59:27;157805.75;;;34.77;52.01
54503;BME280;40411;50.090;21.954;2022-08-19T08:01:54;157852.50;;;34.95;50.52
54503;BME280;40411;50.090;21.954;2022-08-19T08:04:21;158029.03;;;35.65;48.44
54503;BME280;40411;50.090;21.954;2022-08-19T08:07:06;157700.69;;;34.35;48.38
54503;BME280;40411;50.090;21.954;2022-08-19T08:09:52;157987.47;;;35.48;48.29
54503;BME280;40411;50.090;21.954;2022-08-19T08:12:25;158077.06;;;35.84;45.48
54503;BME280;40411;50.090;21.954;2022-08-19T08:14:58;158164.06;;;36.18;46.17
54503;BME280;40411;50.090;21.954;2022-08-19T08:17:27;157974.47;;;35.43;48.38
54503;BME280;40411;50.090;21.954;2022-08-19T08:19:53;157925.19;;;35.24;45.37
54503;BME280;40411;50.090;21.954;2022-08-19T08:22:21;157875.81;;;35.04;45.79
54503;BME280;40411;50.090;21.954;2022-08-19T08:25:15;157949.84;;;35.33;45.78
54503;BME280;40411;50.090;21.954;2022-08-19T08:27:43;157992.66;;;35.50;44.90
54503;BME280;40411;50.090;21.954;2022-08-19T08:30:21;158044.59;;;35.71;42.71
54503;BME280;40411;50.090;21.954;2022-08-19T08:32:48;158044.59;;;35.71;47.80
54503;BME280;40411;50.090;21.954;2022-08-19T08:35:16;158134.22;;;36.06;43.73
54503;BME280;40411;50.090;21.954;2022-08-19T08:37:44;158156.28;;;36.15;42.41
54503;BME280;40411;50.090;21.954;2022-08-19T08:43:33;158504.34;;;37.52;39.80
54503;BME280;40411;50.090;21.954;2022-08-19T08:49:01;158621.31;;;37.98;38.03
54503;BME280;40411;50.090;21.954;2022-08-19T08:51:34;158434.19;;;37.24;40.58
54503;BME280;40411;50.090;21.954;2022-08-19T08:54:04;158509.56;;;37.54;38.73
54503;BME280;40411;50.090;21.954;2022-08-19T08:56:32;158452.38;;;37.31;39.63
54503;BME280;40411;50.090;21.954;2022-08-19T08:59:07;158447.19;;;37.29;38.05
54503;BME280;40411;50.090;21.954;2022-08-19T09:01:36;158478.31;;;37.42;39.96
54503;BME280;40411;50.090;21.954;2022-08-19T09:04:06;158431.59;;;37.23;39.33
54503;BME280;40411;50.090;21.954;2022-08-19T09:09:16;158436.81;;;37.25;38.52
54503;BME280;40411;50.090;21.954;2022-08-19T09:17:00;158558.91;;;37.73;42.00
54503;BME280;40411;50.090;21.954;2022-08-19T09:19:30;158775.97;;;38.59;37.99
54503;BME280;40411;50.090;21.954;2022-08-19T09:21:56;158731.75;;;38.41;38.95
54503;BME280;40411;50.090;21.954;2022-08-19T09:24:22;158649.91;;;38.09;38.95
54503;BME280;40411;50.090;21.954;2022-08-19T09:26:47;158575.78;;;37.80;38.36
54503;BME280;40411;50.090;21.954;2022-08-19T09:29:14;158759.03;;;38.52;36.48
54503;BME280;40411;50.090;21.954;2022-08-19T09:31:39;158662.88;;;38.14;42.45
54503;BME280;40411;50.090;21.954;2022-08-19T09:34:05;158822.69;;;38.77;38.02
54503;BME280;40411;50.090;21.954;2022-08-19T09:36:32;158592.69;;;37.87;39.93
54503;BME280;40411;50.090;21.954;2022-08-19T09:39:05;158668.03;;;38.16;37.97
54503;BME280;40411;50.090;21.954;2022-08-19T09:41:32;158474.44;;;37.40;39.10
54503;BME280;40411;50.090;21.954;2022-08-19T09:43:58;158484.81;;;37.44;37.66
54503;BME280;40411;50.090;21.954;2022-08-19T09:46:26;158483.53;;;37.44;39.15
54503;BME280;40411;50.090;21.954;2022-08-19T09:48:54;158369.22;;;36.99;37.60
54503;BME280;40411;50.090;21.954;2022-08-19T09:51:24;158278.34;;;36.63;41.70
54503;BME280;40411;50.090;21.954;2022-08-19T09:53:51;158539.41;;;37.66;37.67
54503;BME280;40411;50.090;21.954;2022-08-19T09:56:20;158605.66;;;37.92;38.43
54503;BME280;40411;50.090;21.954;2022-08-19T09:58:47;158374.44;;;37.01;38.01
54503;BME280;40411;50.090;21.954;2022-08-19T10:01:21;158597.84;;;37.89;35.99
54503;BME280;40411;50.090;21.954;2022-08-19T10:03:54;158749.97;;;38.49;35.25
54503;BME280;40411;50.090;21.954;2022-08-19T10:06:21;158491.31;;;37.47;39.33
54503;BME280;40411;50.090;21.954;2022-08-19T10:08:47;158579.69;;;37.82;37.04
54503;BME280;40411;50.090;21.954;2022-08-19T10:11:14;158529.06;;;37.62;36.87
54503;BME280;40411;50.090;21.954;2022-08-19T10:13:42;158644.69;;;38.07;36.14
54503;BME280;40411;50.090;21.954;2022-08-19T10:16:17;158496.56;;;37.49;36.02
54503;BME280;40411;50.090;21.954;2022-08-19T10:18:44;158605.66;;;37.92;36.79
54503;BME280;40411;50.090;21.954;2022-08-19T10:21:28;158360.16;;;36.95;37.83
54503;BME280;40411;50.090;21.954;2022-08-19T10:23:57;158712.25;;;38.34;37.71
54503;BME280;40411;50.090;21.954;2022-08-19T10:26:29;158504.34;;;37.52;38.58
54503;BME280;40411;50.090;21.954;2022-08-19T10:28:56;158510.84;;;37.54;36.48
54503;BME280;40411;50.090;21.954;2022-08-19T10:31:25;158530.34;;;37.62;38.16
54503;BME280;40411;50.090;21.954;2022-08-19T10:33:51;158314.66;;;36.77;37.23
54503;BME280;40411;50.090;21.954;2022-08-19T10:36:23;158247.16;;;36.51;39.81
54503;BME280;40411;50.090;21.954;2022-08-19T10:38:52;158239.38;;;36.47;38.56
54503;BME280;40411;50.090;21.954;2022-08-19T10:41:21;158469.25;;;37.38;41.35
54503;BME280;40411;50.090;21.954;2022-08-19T10:43:51;158361.44;;;36.96;38.10
54503;BME280;40411;50.090;21.954;2022-08-19T10:46:21;158200.41;;;36.32;37.82
54503;BME280;40411;50.090;21.954;2022-08-19T10:48:47;158508.28;;;37.53;39.28
54503;BME280;40411;50.090;21.954;2022-08-19T10:51:13;158591.34;;;37.86;37.54
54503;BME280;40411;50.090;21.954;2022-08-19T10:53:58;158548.50;;;37.69;36.63
54503;BME280;40411;50.090;21.954;2022-08-19T10:56:26;158617.41;;;37.96;42.23
54503;BME280;40411;50.090;21.954;2022-08-19T10:59:10;158416.03;;;37.17;36.96
54503;BME280;40411;50.090;21.954;2022-08-19T11:01:41;158378.34;;;37.02;36.69
54503;BME280;40411;50.090;21.954;2022-08-19T11:04:07;158617.41;;;37.96;38.20
54503;BME280;40411;50.090;21.954;2022-08-19T11:06:37;158756.47;;;38.51;35.13
54503;BME280;40411;50.090;21.954;2022-08-19T11:09:04;158714.84;;;38.35;38.11
54503;BME280;40411;50.090;21.954;2022-08-19T11:11:31;158803.19;;;38.70;36.04
54503;BME280;40411;50.090;21.954;2022-08-19T11:13:58;158561.50;;;37.74;35.70
54503;BME280;40411;50.090;21.954;2022-08-19T11:16:26;158466.66;;;37.37;35.77
54503;BME280;40411;50.090;21.954;2022-08-19T11:18:58;158512.13;;;37.55;36.67
54503;BME280;40411;50.090;21.954;2022-08-19T11:21:25;158543.34;;;37.67;35.17
54503;BME280;40411;50.090;21.954;2022-08-19T11:23:54;158374.44;;;37.01;36.20
54503;BME280;40411;50.090;21.954;2022-08-19T11:26:22;158410.81;;;37.15;37.48
54503;BME280;40411;50.090;21.954;2022-08-19T11:28:49;158364.00;;;36.97;37.45
54503;BME280;40411;50.090;21.954;2022-08-19T11:31:19;158431.59;;;37.23;36.70
54503;BME280;40411;50.090;21.954;2022-08-19T11:33:46;158408.25;;;37.14;38.55
54503;BME280;40411;50.090;21.954;2022-08-19T11:36:16;158496.56;;;37.49;40.33
54503;BME280;40411;50.090;21.954;2022-08-19T11:38:44;158265.34;;;36.58;39.10
54503;BME280;40411;50.090;21.954;2022-08-19T11:41:10;158188.75;;;36.28;41.04
54503;BME280;40411;50.090;21.954;2022-08-19T11:43:37;158336.75;;;36.86;37.73
54503;BME280;40411;50.090;21.954;2022-08-19T11:46:07;158345.88;;;36.89;36.41
54503;BME280;40411;50.090;21.954;2022-08-19T11:48:34;158370.50;;;36.99;35.29
54503;BME280;40411;50.090;21.954;2022-08-19T11:51:04;158532.94;;;37.63;36.66
54503;BME280;40411;50.090;21.954;2022-08-19T11:53:32;158343.22;;;36.88;34.49
54503;BME280;40411;50.090;21.954;2022-08-19T11:55:58;158134.22;;;36.06;35.91
54503;BME280;40411;50.090;21.954;2022-08-19T11:58:24;158000.44;;;35.53;37.23
54503;BME280;40411;50.090;21.954;2022-08-19T12:00:51;158115.97;;;35.99;39.20
54503;BME280;40411;50.090;21.954;2022-08-19T12:03:17;158269.25;;;36.59;37.07
54503;BME280;40411;50.090;21.954;2022-08-19T12:05:45;158257.56;;;36.55;37.64
54503;BME280;40411;50.090;21.954;2022-08-19T12:08:11;158218.59;;;36.39;37.70
54503;BME280;40411;50.090;21.954;2022-08-19T12:10:39;158210.81;;;36.36;38.13
54503;BME280;40411;50.090;21.954;2022-08-19T12:13:05;158260.19;;;36.56;40.01
54503;BME280;40411;50.090;21.954;2022-08-19T12:15:40;158309.53;;;36.75;38.21
54503;BME280;40411;50.090;21.954;2022-08-19T12:18:07;158109.47;;;35.96;40.02
54503;BME280;40411;50.090;21.954;2022-08-19T12:20:36;157939.44;;;35.29;39.87
54503;BME280;40411;50.090;21.954;2022-08-19T12:23:03;158047.22;;;35.72;39.76
54503;BME280;40411;50.090;21.954;2022-08-19T12:25:29;157709.75;;;34.39;39.82
54503;BME280;40411;50.090;21.954;2022-08-19T12:27:55;157932.94;;;35.27;41.68
54503;BME280;40411;50.090;21.954;2022-08-19T12:30:20;157987.47;;;35.48;41.56
54503;BME280;40411;50.090;21.954;2022-08-19T12:32:46;157995.25;;;35.51;43.07
54503;BME280;40411;50.090;21.954;2022-08-19T12:35:12;157892.78;;;35.11;39.03
54503;BME280;40411;50.090;21.954;2022-08-19T12:37:39;157821.38;;;34.83;38.74
54503;BME280;40411;50.090;21.954;2022-08-19T12:40:10;157807.09;;;34.77;40.77
54503;BME280;40411;50.090;21.954;2022-08-19T12:42:38;157713.63;;;34.40;39.05
54503;BME280;40411;50.090;21.954;2022-08-19T12:45:12;157746.06;;;34.53;39.18
54503;BME280;40411;50.090;21.954;2022-08-19T12:47:39;157613.72;;;34.01;40.15
54503;BME280;40411;50.090;21.954;2022-08-19T12:50:06;157788.91;;;34.70;40.54
54503;BME280;40411;50.090;21.954;2022-08-19T12:52:35;157904.41;;;35.16;40.58
54503;BME280;40411;50.090;21.954;2022-08-19T12:55:06;157901.84;;;35.14;43.32
54503;BME280;40411;50.090;21.954;2022-08-19T12:57:32;158021.25;;;35.62;41.25
54503;BME280;40411;50.090;21.954;2022-08-19T13:00:03;157990.03;;;35.49;40.96